Tips voor optimaal zoeken

Zoek op trefwoorden of stel een vraag
Typ een trefwoord zoals beurskoers, of stel een vraag zoals Wat is het laatste nieuws over Amerika?.
Exacte zinnen zoeken
Zet aanhalingstekens om een exacte woordcombinatie te vinden, bijvoorbeeld "Johan Cruijff ArenA".
Resultaten filteren
Na het zoeken kunt u filteren op publicatieperiode, bron, onderwerp en auteur.
Zoekopdrachten volgen
Wilt u updates ontvangen over een onderwerp? Via "Mijn nieuws" kunt u een term volgen.
Close sub menu
NASDAQ
NY-Nasdaq Composite 26.217,8279 +118,05 +0,45% 23:15
Stijgers 1 dag
Dalers 1 dag
Indices 1 dag
Charter Communications Inc +8,7%
SiriusXM Holdings Inc +7,5%
PayPal Holdings Inc +4,3%
Lucid Group Inc +3,5%
Constellation Energy Corporation +3,5%
Regeneron Pharmaceuticals Inc +3,4%
NVIDIA Corporation +3,2%
Biogen Inc +3,1%
Illumina Inc +3,0%
T Mobile US Inc +2,8%
NXP Semiconductors NV +2,7%
Align Technology Inc +2,7%
Palo Alto Networks Inc -9,3%
Datadog Inc -6,5%
CrowdStrike Holdings Inc -5,4%
Fortinet Inc -4,5%
Verisk Analytics Inc -3,2%
Zscaler Inc -3,2%
Autodesk Inc -2,4%
CoStar Group Inc -2,3%
Moderna Inc -2,2%
Adobe Inc -2,2%
Cadence Design Systems Inc -2,0%
Honeywell International Inc -1,9%
AEX* 1.102,23-0,1%
Midkap* 1.105,650,0%
AMS Next 20®* 1.590,58+0,3%
FTSE100 10.758,720,0%
Dow Jones 53.061,95+0,6%
NASDAQ 26.217,8279+0,5%
S&P500 7.666,60+0,5%
S&P Future 7.675,250,0%
BEL20** 5.825,71-0,1%
CAC 40** 8.280,63-0,3%
DAX 25.833,430,0%
* real time    ** slotkoers
NaamKoersVorige+/- %1 wk1 mndDit jaar 1 jaarTijd
Adobe Inc 279,79 286,08 -2,2% +2,3% +11,7% -20,1% -19,0% 22:15
Advanced Micro Devices Inc 457,06 459,61 -0,6% -5,0% -4,0% +113,4% +181,6% 22:15
Airbnb Inc 183,26 182,55 +0,4% -2,6% +20,9% +35,0% +43,6% 22:15
Align Technology Inc 159,13 154,96 +2,7% 0,0% -5,9% +1,9% +16,0% 22:00
Alphabet Inc 333,78 332,03 +0,5% -1,6% -6,4% +6,4% +57,5% 22:15
Alphabet Inc 337,12 335,02 +0,6% -1,4% -5,3% +7,7% +59,5% 22:15
Amazon.com Inc 254,98 254,92 0,0% -2,0% -6,1% +10,5% +13,2% 22:15
American Electric Power Company 123,57 122,96 +0,5% +0,2% -3,3% +7,2% +12,2% 22:15
Amgen Inc 442,84 438,12 +1,1% +0,6% +15,0% +35,3% +54,3% 22:15
Analog Devices Inc 355,71 354,52 +0,3% -4,3% -3,2% +31,2% +43,2% 22:15
Ansys 374,30 374,30 -- -- -4,7% +11,0% +15,2% 22:00
Apple Inc 324,96 325,13 -0,1% +3,7% +5,2% +19,5% +41,5% 22:15
Applied Materials Inc 438,46 441,85 -0,8% -8,6% -13,6% +70,6% +178,3% 22:15
ASML Holding NV 1.682,30 1.665,14 +1,0% -3,6% +3,3% +57,2% +131,8% 22:15
AstraZeneca Plc 161,63 162,47 -0,5% -2,8% -4,7% -12,1% +0,8% 22:15
Atlassian Corporation PLC 186,44 187,03 -0,3% +10,7% +84,6% +15,0% +8,0% 22:15
Autodesk Inc 241,73 247,69 -2,4% -5,1% +3,2% -18,3% -24,3% 22:15
Automatic Data Processing Inc 281,16 283,49 -0,8% -0,1% +5,5% +9,3% -6,2% 22:15
Baker Hughes Company 64,63 63,66 +1,5% +4,2% +6,8% +41,9% +42,5% 22:15
Biogen Inc 222,67 216,04 +3,1% +0,7% +9,7% +26,5% +59,5% 22:15
Booking Holdings Inc 199,60 195,69 +2,0% -4,4% +3,5% -6,8% -9,4% 22:15
Broadcom Inc 367,24 369,68 -0,7% +3,3% -5,7% +6,1% +23,1% 22:15
Cadence Design Systems Inc 306,67 313,04 -2,0% -8,4% -9,8% -1,9% -10,5% 22:15
Charter Communications Inc 158,97 146,19 +8,7% +3,3% +9,6% -23,8% -39,9% 22:15
Cintas Corporation 198,09 200,59 -1,2% -3,7% -3,2% +5,3% -3,6% 22:15
Cisco Systems Inc 109,46 109,74 -0,3% -2,6% -5,6% +42,1% +61,4% 22:15
Cognizant Technology Solutions Corp 63,40 63,39 0,0% +2,1% +14,6% -23,6% -11,7% 22:00
Comcast Corp 26,81 26,30 +1,9% -1,4% +11,9% -10,3% -21,4% 22:15
Constellation Energy Corporation 290,04 280,31 +3,5% +3,8% +10,4% -17,9% -5,6% 22:15
Copart Inc 32,16 32,47 -0,9% -1,6% +10,4% -17,9% -33,7% 22:15
CoStar Group Inc 31,26 31,98 -2,3% -2,7% +8,7% -53,5% -64,5% 22:15
Costco Wholesale Corporation 928,48 939,96 -1,2% -2,9% -2,5% +7,7% -1,1% 22:15
CrowdStrike Holdings Inc 203,42 215,07 -5,4% +7,5% +6,6% +73,6% +96,8% 22:15
CSX Corporation 48,65 48,70 -0,1% -6,0% -3,5% +34,2% +51,1% 22:00
Datadog Inc 209,23 223,84 -6,5% -8,1% -21,9% +53,9% +55,3% 22:15
DexCom Inc 89,69 90,14 -0,5% +0,8% +7,5% +35,1% +20,7% 22:15
Diamondback Energy Inc 203,42 203,16 +0,1% +1,8% +0,2% +35,3% +35,7% 22:15
Dollar Tree Inc 131,91 131,71 +0,2% -0,2% +3,7% +7,2% +18,5% 22:15
eBay Inc 106,70 104,98 +1,6% +2,4% -6,4% +22,5% +18,7% 22:15
Electronic Arts Inc 209,70 209,70 -- -- -0,1% +2,6% +22,3% 22:15
Enphase Energy Inc 35,52 35,54 -0,1% -7,5% -5,4% +10,8% -3,9% 22:15
Exelon Corporation 43,97 43,83 +0,3% -1,1% -4,0% +0,9% +1,4% 22:15
Fastenal Company 47,93 48,75 -1,7% -6,3% +0,5% +19,4% -2,6% 22:00
Fortinet Inc 154,54 161,85 -4,5% -1,9% -4,6% +94,6% +100,9% 22:15
Gilead Sciences Inc 149,61 149,92 -0,2% +1,0% +14,9% +21,9% +32,7% 22:15
Global Foundries Inc 43,97 43,93 +0,1% -3,7% -12,0% +25,9% +32,6% 22:15
Honeywell International Inc 206,07 209,98 -1,9% -6,6% -15,2% +5,6% -5,3% 22:15
IDEXX Laboratories Inc 538,99 545,16 -1,1% -2,6% -3,6% -20,3% -15,7% 22:15
Illumina Inc 213,25 207,13 +3,0% -5,2% +4,0% +62,6% +118,0% 22:15
Intel Corporation 90,05 88,97 +1,2% +2,1% -0,2% +144,0% +272,0% 22:15
Intuit Inc 342,94 344,93 -0,6% -0,9% +8,5% -48,2% -48,2% 22:15
Intuitive Surgical Inc 371,88 369,25 +0,7% +0,4% +5,3% -34,3% -20,7% 22:15
JD com Inc 27,83 27,90 -0,3% -3,3% -15,7% -3,0% -11,9% 22:15
Keurig Dr Pepper Inc 32,59 31,89 +2,2% +1,2% +4,7% +16,4% +12,7% 22:00
KLA Corporation 172,26 170,89 +0,8% -6,3% -5,8% +41,8% +103,5% 22:15
Kraft Heinz Company 26,26 25,87 +1,5% +5,9% +1,6% +8,3% +0,9% 22:15
Lam Research Corporation 288,32 290,20 -0,6% -7,8% -1,6% +68,4% +197,1% 22:15
Lucid Group Inc 4,71 4,55 +3,5% -4,8% -36,2% -55,4% -73,3% 22:15
Lululemon Athletica Inc 120,07 118,00 +1,8% +3,2% +1,0% -42,2% -40,0% 22:15
Marriott International Inc 333,14 334,55 -0,4% -7,1% -10,6% +7,4% +26,0% 22:15
Marvell Technology Inc 206,48 210,39 -1,9% -15,8% +10,1% +143,0% +219,6% 22:15
MercadoLibre Inc 2.006,58 1.963,49 +2,2% +2,9% +6,8% -0,4% -15,7% 22:15
Meta Platforms Inc 592,85 578,54 +2,5% +2,9% +6,5% -10,2% -19,4% 22:15
Microchip Technology Inc 72,76 71,41 +1,9% -1,7% -2,1% +14,2% +14,4% 22:15
Micron Technology Inc 956,08 933,44 +2,4% +1,9% +16,2% +235,0% +707,0% 22:15
Microsoft Corporation 496,82 501,02 -0,8% +0,1% +6,9% +2,7% -1,6% 22:15
Moderna Inc 150,81 154,27 -2,2% +0,8% +175,1% +411,4% +523,4% 22:15
Mondelez International Inc 62,45 61,61 +1,4% -0,9% +0,2% +16,0% +1,1% 22:15
Monster Beverage Corporation 44,42 44,99 -1,3% -7,1% -7,8% +15,9% +41,8% 22:15
Netflix Inc 82,73 80,81 +2,4% +1,6% +15,4% -11,8% -31,9% 22:15
NVIDIA Corporation 224,41 217,44 +3,2% +7,0% +11,8% +20,3% +31,4% 22:15
NXP Semiconductors NV 228,50 222,40 +2,7% +2,4% -0,3% +5,3% -1,8% 22:15
O Reilly Automotive Inc 86,97 87,95 -1,1% -2,9% -2,7% -4,6% -15,7% 22:15
Old Dominion Freight Line Inc 187,61 187,01 +0,3% -5,9% -11,5% +19,6% +25,2% 22:00
PACCAR Inc 122,13 122,45 -0,3% -5,5% -7,9% +11,5% +23,5% 22:15
Palo Alto Networks Inc 328,48 362,09 -9,3% -3,2% -1,0% +78,3% +72,4% 22:15
Paychex Inc 124,00 125,64 -1,3% -0,7% +6,1% +10,5% -8,8% 22:15
PayPal Holdings Inc 54,67 52,40 +4,3% -11,6% -4,4% -6,4% -21,1% 22:15
PDD Holdings Inc 82,25 83,17 -1,1% -5,2% -7,1% -27,5% -32,4% 22:15
PepsiCo Inc 140,52 139,79 +0,5% -1,2% +0,7% -2,1% -6,5% 22:15
QUALCOMM Inc 169,96 166,61 +2,0% +3,8% +15,1% -0,6% +7,0% 22:15
Regeneron Pharmaceuticals Inc 852,03 823,82 +3,4% +4,6% +11,7% +10,4% +47,4% 22:15
Rivian Automotive Inc 15,61 15,54 +0,5% -4,4% +2,6% -20,8% +12,5% 22:15
Ross Stores Inc 230,85 229,24 +0,7% -2,3% -8,1% +28,2% +52,6% 22:00
Seagen 228,89 228,74 -- -- +7,2% +78,1% +78,3% 22:00
SiriusXM Holdings Inc 29,70 27,62 +7,5% +4,2% +0,3% +48,5% +28,5% 22:15
Starbucks Corporation 106,72 106,15 +0,5% -1,6% +1,4% +26,7% +18,9% 22:15
Synopsys Inc 415,97 414,82 +0,3% +1,5% +7,0% -11,4% -29,7% 22:15
T Mobile US Inc 187,30 182,16 +2,8% +4,3% +8,4% -7,8% -26,8% 22:15
Tesla Inc 357,01 356,09 +0,3% +3,2% +14,7% -20,6% +8,4% 22:50
Texas Instruments Incorporated 254,80 253,34 +0,6% -2,7% -7,6% +46,9% +27,5% 22:15
Verisk Analytics Inc 188,16 194,35 -3,2% +0,2% -3,4% -15,9% -29,0% 22:00
Vertex Pharmaceuticals Inc 556,75 547,65 +1,7% +1,7% +16,7% +22,8% +38,8% 22:15
Walgreens Boots Alliance 11,98 11,98 -- -- +0,5% +28,4% +40,6% 22:00
Warner Brothers Discovery Inc 28,39 28,32 +0,2% -1,3% +7,9% -1,5% +144,3% 22:15
Workday Inc 200,87 198,38 +1,3% +5,3% +25,3% -6,5% -12,2% 22:15
Xcel Energy Inc 75,51 75,89 -0,5% -2,8% -3,4% +2,2% +4,7% 22:15
Zoom Communications Inc 95,86 94,90 +1,0% +2,2% -0,2% +11,1% +17,0% 22:15
Zscaler Inc 172,73 178,37 -3,2% +1,4% +14,2% -23,2% -37,1% 22:15
Powered by

Schakel browser notificaties in

Schakel browser notificaties in om meldingen te ontvangen op dit apparaat.

Browser notificaties inschakelen

U heeft browser notificaties voor fd.nl eerder geweigerd. Ga naar browser instellingen en sta browser notificaties toe voor fd.nl. De precieze handelingen zijn afhankelijk van uw browser.

U volgt een onderwerp

Wanneer deze zoekterm in een artikel voorkomt, zult u deze terugvinden in Mijn nieuws onder ‘Eurobonds’.

Wilt u via de FD App meldingen ontvangen voor dit onderwerp?

Wilt u via de FD App meldingen ontvangen voor dit onderwerp?

Ons privacy statement is van toepassing.

Meldingen

Wanneer deze zoekterm in een artikel voorkomt, zult u deze terugvinden in Mijn nieuws onder ‘Eurobonds’.

Wilt u via de FD App meldingen ontvangen voor dit onderwerp?

Wilt u via de FD App meldingen ontvangen voor dit onderwerp?